DABC Airport Information

Runway Information
Runway 14 Length 7874 ft width 148 ft
Elevation 2306 ft Threshold 0 ft Heading 136
Runway 32 Length 7874 ft Width 148 ft
Elevation 2254 ft Threshold 0 ft Heading 316
Runway 16 Length 9843 ft width 148 ft
Elevation 2313 ft Threshold 0 ft Heading 159
Runway 34 Length 9843 ft Width 148 ft
Elevation 2316 ft Threshold 0 ft Heading 339
Airport Frequencies
Type APP Name CONSTANTIN Frequency 120.1 MHZ
Type TWR Name CONSTANTIN Frequency 118.3 MHZ
Airport Navaids
Type NDB Name Constantine Frequency 397 KHZ
Type VOR-DME Name Constantine Frequency 115500 KHZ
Airport Weather Information & NOTAM
ADDS - METARS form results

(2341 UTC 17 February 2019)
Data provider http://aviationweather.gov/metar/data/
 
METAR text: DABC 172330Z 17004KT CAVOK 05/01 Q1025
Conditions at: DABC (CONSTANTINE/EL B, DZ) observed 2330 UTC 17 February 2019
Temperature: 5.0°C (41°F)
Dewpoint: 1.0°C (34°F) [RH = 75%]
Pressure (altimeter): 30.27 inches Hg (1025.0 mb)
Winds: from the S (170 degrees) at 5 MPH (4 knots; 2.1 m/s)
Visibility: 6 or more miles (10+ km)
Ceiling: ceiling and visibility are OK
Clouds: unknown
Weather: no significant weather observed at this time

METAR text: DABC 172300Z 17005KT CAVOK 05/02 Q1025
Conditions at: DABC (CONSTANTINE/EL B, DZ) observed 2300 UTC 17 February 2019
Temperature: 5.0°C (41°F)
Dewpoint: 2.0°C (36°F) [RH = 81%]
Pressure (altimeter): 30.27 inches Hg (1025.0 mb)
Winds: from the S (170 degrees) at 6 MPH (5 knots; 2.6 m/s)
Visibility: 6 or more miles (10+ km)
Ceiling: ceiling and visibility are OK
Clouds: unknown
Weather: no significant weather observed at this time

Forecast for: DABC (CONSTANTINE/EL B, DZ)
Text: TAF DABC 172300Z 1800/1824 19008KT 9999 FEW030 SCT200
Forecast period: 0000 to 1200 UTC 18 February 2019
Forecast type: FROM: standard forecast or significant change
Winds: from the S (190 degrees) at 9 MPH (8 knots; 4.1 m/s)
Visibility: 6 or more miles 10+ km)
Ceiling: at least 12,000 feet AGL
Clouds: few clouds at 3000 feet AGL
scattered clouds at 20000 feet AGL
Weather: no significant weather forecast for this period
Text: BECMG 1812/1816 30006KT
Forecast period: 1200 UTC 18 February 2019 to 0000 UTC 19 February 2019
Forecast type: BECOMING: Conditions expected to become as follows by 1600 UTC 18 February 2019
Winds: from the WNW (300 degrees) at 7 MPH (6 knots; 3.1 m/s)
Visibility: 6 or more miles 10+ km)
Ceiling: at least 12,000 feet AGL
Clouds: few clouds at 3000 feet AGL
scattered clouds at 20000 feet AGL
Weather: no significant weather forecast for this period